Time;durP1;ratioP1;P1;durP2;ratioP2;P2;SDS_P1;SDS_P2;PMS_P1;PMS_P2;Temp;Humidity;BMP_temperature;BMP_pressure;BME280_temperature;BME280_humidity;BME280_pressure;Samples;Min_cycle;Max_cycle;Signal;HPM_P1;HPM_P2
2022/06/19 00:01:03;;;;;;;6.40;3.70;;;;;;;;;;5001634;28;20042;-84
2022/06/19 00:03:57;;;;;;;7.35;2.97;;;;;;;;;;5000749;28;20046;-82
2022/06/19 00:06:43;;;;;;;5.20;2.90;;;;;;;;;;4995198;28;20054;-83
2022/06/19 00:09:29;;;;;;;8.02;2.60;;;;;;;;;;4986571;28;20401;-83
2022/06/19 00:12:17;;;;;;;5.50;2.85;;;;;;;;;;5003962;28;20413;-83
2022/06/19 00:15:03;;;;;;;5.93;2.90;;;;;;;;;;4989025;28;20505;-82
2022/06/19 00:17:48;;;;;;;5.35;3.60;;;;;;;;;;5001154;28;20071;-84
2022/06/19 00:20:33;;;;;;;9.35;3.85;;;;;;;;;;5001223;28;20046;-83
2022/06/19 00:23:19;;;;;;;13.38;4.28;;;;;;;;;;5000872;28;20050;-83
2022/06/19 00:26:04;;;;;;;13.05;4.63;;;;;;;;;;5001279;28;20046;-82
2022/06/19 00:28:50;;;;;;;9.00;4.68;;;;;;;;;;5002205;28;20050;-83
2022/06/19 00:31:35;;;;;;;12.07;4.93;;;;;;;;;;4999714;28;20050;-83
2022/06/19 00:34:21;;;;;;;20.05;5.63;;;;;;;;;;5000012;28;20031;-81
2022/06/19 00:37:07;;;;;;;16.75;5.88;;;;;;;;;;5001553;28;20046;-82
2022/06/19 00:39:53;;;;;;;7.82;4.47;;;;;;;;;;5004989;28;20046;-82
2022/06/19 00:42:38;;;;;;;9.68;5.22;;;;;;;;;;5005369;28;20050;-81
2022/06/19 00:45:29;;;;;;;17.33;5.22;;;;;;;;;;5004810;28;20054;-81
2022/06/19 00:48:30;;;;;;;12.20;5.10;;;;;;;;;;4998307;28;20058;-81
2022/06/19 00:51:18;;;;;;;10.10;4.68;;;;;;;;;;4997873;28;20047;-81
2022/06/19 00:54:06;;;;;;;12.25;4.47;;;;;;;;;;5004619;28;20049;-82
2022/06/19 00:56:51;;;;;;;9.30;4.80;;;;;;;;;;5004822;28;20046;-82
2022/06/19 00:59:42;;;;;;;15.65;4.80;;;;;;;;;;4985286;28;20054;-82
2022/06/19 01:02:28;;;;;;;16.33;5.72;;;;;;;;;;5004856;28;20054;-81
2022/06/19 01:05:15;;;;;;;28.27;6.85;;;;;;;;;;5004312;28;20054;-81
2022/06/19 01:08:01;;;;;;;24.80;8.48;;;;;;;;;;5004879;28;20050;-82
2022/06/19 01:10:50;;;;;;;27.23;9.55;;;;;;;;;;4998496;28;20050;-82
2022/06/19 01:13:36;;;;;;;12.82;5.85;;;;;;;;;;5004529;28;20050;-81
2022/06/19 01:16:21;;;;;;;10.48;4.80;;;;;;;;;;5006482;28;20042;-81
2022/06/19 01:19:09;;;;;;;6.93;3.22;;;;;;;;;;5004648;28;20046;-81
2022/06/19 01:22:11;;;;;;;6.55;2.72;;;;;;;;;;5006673;28;20046;-81
2022/06/19 01:25:06;;;;;;;3.88;2.80;;;;;;;;;;5009421;28;20050;-81
2022/06/19 01:31:06;;;;;;;8.27;2.75;;;;;;;;;;5003553;28;20050;-81
2022/06/19 01:34:02;;;;;;;6.18;2.90;;;;;;;;;;5009369;28;20042;-82
2022/06/19 01:36:48;;;;;;;4.75;2.85;;;;;;;;;;5009356;28;20050;-82
2022/06/19 01:39:42;;;;;;;6.43;2.85;;;;;;;;;;5008165;28;20046;-82
2022/06/19 01:42:30;;;;;;;4.10;2.97;;;;;;;;;;5009244;28;20046;-82
2022/06/19 01:45:17;;;;;;;4.45;3.15;;;;;;;;;;5011045;28;20054;-82
2022/06/19 01:48:01;;;;;;;4.40;2.80;;;;;;;;;;5010635;28;20050;-81
2022/06/19 01:50:48;;;;;;;7.53;3.25;;;;;;;;;;5010551;28;20046;-81
2022/06/19 01:53:42;;;;;;;6.38;2.60;;;;;;;;;;5011432;28;20050;-82
2022/06/19 01:56:28;;;;;;;5.65;3.38;;;;;;;;;;4996338;28;20046;-82
2022/06/19 01:59:14;;;;;;;4.80;2.80;;;;;;;;;;5004220;28;20054;-82
2022/06/19 02:02:02;;;;;;;8.57;3.00;;;;;;;;;;5006248;28;20469;-83
2022/06/19 02:04:47;;;;;;;7.30;3.08;;;;;;;;;;5007106;28;20042;-82
2022/06/19 02:07:33;;;;;;;6.70;3.00;;;;;;;;;;5005951;28;20042;-83
2022/06/19 02:10:21;;;;;;;9.35;3.30;;;;;;;;;;4999738;28;20050;-83
2022/06/19 02:13:09;;;;;;;4.88;3.47;;;;;;;;;;5005341;28;20050;-82
2022/06/19 02:15:54;;;;;;;6.90;3.00;;;;;;;;;;5005543;28;20046;-82
2022/06/19 02:18:44;;;;;;;5.95;3.00;;;;;;;;;;5000481;28;20043;-83
2022/06/19 02:21:37;;;;;;;4.28;2.80;;;;;;;;;;5001084;28;20046;-83
2022/06/19 02:24:26;;;;;;;5.20;3.15;;;;;;;;;;4998311;28;20050;-83
2022/06/19 02:27:12;;;;;;;3.20;2.60;;;;;;;;;;4996953;28;20062;-82
2022/06/19 02:29:58;;;;;;;5.75;2.92;;;;;;;;;;4993135;28;20042;-82
2022/06/19 02:32:47;;;;;;;4.45;2.60;;;;;;;;;;4999113;28;20054;-83
2022/06/19 02:35:33;;;;;;;4.80;3.15;;;;;;;;;;4988941;28;20042;-83
2022/06/19 02:38:20;;;;;;;4.82;3.10;;;;;;;;;;4993234;28;20050;-83
2022/06/19 02:41:15;;;;;;;4.07;3.00;;;;;;;;;;5002572;28;20050;-82
2022/06/19 02:44:01;;;;;;;5.65;3.00;;;;;;;;;;4989564;28;20050;-84
2022/06/19 02:46:47;;;;;;;4.47;2.53;;;;;;;;;;5002699;28;20046;-82
2022/06/19 02:49:33;;;;;;;7.32;3.08;;;;;;;;;;4997004;28;20047;-81
2022/06/19 02:52:20;;;;;;;4.47;3.00;;;;;;;;;;5005593;28;20054;-82
2022/06/19 02:55:07;;;;;;;7.80;3.42;;;;;;;;;;5005704;28;20050;-81
2022/06/19 02:57:52;;;;;;;11.80;3.50;;;;;;;;;;5003233;28;20490;-81
2022/06/19 03:00:38;;;;;;;5.75;3.03;;;;;;;;;;5003302;28;20049;-81
2022/06/19 03:03:28;;;;;;;4.13;3.00;;;;;;;;;;4996543;28;20050;-81
2022/06/19 03:06:14;;;;;;;5.97;4.10;;;;;;;;;;4996248;28;20054;-82
2022/06/19 03:08:59;;;;;;;7.60;5.03;;;;;;;;;;5002394;28;20429;-81
2022/06/19 03:11:45;;;;;;;7.20;3.70;;;;;;;;;;5002379;28;20502;-80
2022/06/19 03:14:32;;;;;;;5.63;3.28;;;;;;;;;;5002319;28;20047;-81
2022/06/19 03:17:20;;;;;;;6.75;2.88;;;;;;;;;;5004988;28;20045;-81
2022/06/19 03:20:07;;;;;;;9.05;3.22;;;;;;;;;;5000807;28;20058;-82
2022/06/19 03:22:54;;;;;;;10.23;2.92;;;;;;;;;;4998896;28;20054;-81
2022/06/19 03:25:39;;;;;;;4.60;2.55;;;;;;;;;;5008317;28;20050;-81
2022/06/19 03:28:24;;;;;;;2.88;2.55;;;;;;;;;;5023441;28;20058;-81
2022/06/19 03:31:22;;;;;;;7.15;3.00;;;;;;;;;;5022958;28;20049;-81
2022/06/19 03:34:08;;;;;;;6.72;4.60;;;;;;;;;;5021850;28;20042;-82
2022/06/19 03:36:53;;;;;;;6.38;4.10;;;;;;;;;;4996526;28;20486;-83
2022/06/19 03:39:39;;;;;;;8.57;5.13;;;;;;;;;;5001960;28;20046;-82
2022/06/19 03:42:24;;;;;;;10.23;7.88;;;;;;;;;;5002517;28;20046;-82
2022/06/19 03:45:10;;;;;;;12.00;8.95;;;;;;;;;;4995555;28;20046;-82
2022/06/19 03:47:55;;;;;;;5.38;4.05;;;;;;;;;;5001533;28;20065;-82
2022/06/19 03:50:42;;;;;;;7.85;3.17;;;;;;;;;;4994638;28;20046;-82
2022/06/19 03:53:27;;;;;;;3.08;2.60;;;;;;;;;;5000902;28;20054;-82
2022/06/19 03:56:20;;;;;;;7.55;3.80;;;;;;;;;;5016856;28;20045;-81
2022/06/19 03:59:08;;;;;;;9.18;4.80;;;;;;;;;;4980259;28;20058;-82
2022/06/19 04:01:55;;;;;;;9.95;6.20;;;;;;;;;;4998498;28;20046;-82
2022/06/19 04:04:40;;;;;;;14.73;9.15;;;;;;;;;;5001357;28;20054;-82
2022/06/19 04:07:26;;;;;;;14.23;10.13;;;;;;;;;;4998153;28;20045;-82
2022/06/19 04:10:12;;;;;;;15.50;10.32;;;;;;;;;;4994214;28;20038;-82
2022/06/19 04:12:58;;;;;;;17.58;10.98;;;;;;;;;;5000910;28;20470;-82
2022/06/19 04:15:43;;;;;;;21.88;12.20;;;;;;;;;;5001380;28;20425;-82
2022/06/19 04:18:30;;;;;;;20.23;12.48;;;;;;;;;;5020845;28;20434;-81
2022/06/19 04:21:18;;;;;;;13.13;9.50;;;;;;;;;;5020457;28;20054;-81
2022/06/19 04:24:05;;;;;;;12.38;7.20;;;;;;;;;;5020526;28;20046;-82
2022/06/19 04:26:51;;;;;;;10.70;5.13;;;;;;;;;;5020284;28;20045;-82
2022/06/19 04:29:36;;;;;;;11.88;5.30;;;;;;;;;;5014260;28;20401;-82
2022/06/19 04:32:22;;;;;;;10.45;3.67;;;;;;;;;;5020945;28;20049;-81
2022/06/19 04:35:08;;;;;;;9.18;3.92;;;;;;;;;;5020284;28;20038;-82
2022/06/19 04:37:55;;;;;;;9.70;3.30;;;;;;;;;;5015330;28;20038;-81
2022/06/19 04:40:40;;;;;;;3.85;2.63;;;;;;;;;;4990301;28;20062;-82
2022/06/19 04:43:26;;;;;;;5.55;3.05;;;;;;;;;;4980850;28;20058;-82
2022/06/19 04:46:12;;;;;;;4.57;3.13;;;;;;;;;;4981420;28;20418;-82
2022/06/19 04:48:58;;;;;;;6.07;2.72;;;;;;;;;;4983427;28;20421;-82
2022/06/19 04:51:50;;;;;;;7.63;3.50;;;;;;;;;;4988584;28;20047;-82
2022/06/19 04:54:34;;;;;;;4.35;3.38;;;;;;;;;;4980425;28;20042;-83
2022/06/19 04:57:24;;;;;;;4.85;3.00;;;;;;;;;;4981065;28;20482;-83
2022/06/19 05:00:16;;;;;;;6.32;2.78;;;;;;;;;;4978915;28;20051;-83
2022/06/19 05:03:01;;;;;;;5.97;3.72;;;;;;;;;;5000663;28;20486;-82
2022/06/19 05:05:48;;;;;;;5.88;3.05;;;;;;;;;;5000714;28;20046;-83
2022/06/19 05:08:33;;;;;;;4.93;2.90;;;;;;;;;;5000685;28;20046;-81
2022/06/19 05:11:20;;;;;;;6.03;3.00;;;;;;;;;;5000484;28;20046;-80
2022/06/19 05:14:06;;;;;;;4.60;2.75;;;;;;;;;;4993991;28;20401;-83
2022/06/19 05:16:51;;;;;;;7.53;2.90;;;;;;;;;;5000461;28;20039;-83
2022/06/19 05:19:40;;;;;;;4.40;3.22;;;;;;;;;;5001076;28;20413;-81
2022/06/19 05:22:25;;;;;;;3.78;2.70;;;;;;;;;;4999637;28;20501;-80
2022/06/19 05:25:11;;;;;;;5.70;2.50;;;;;;;;;;4984531;28;20047;-81
2022/06/19 05:27:56;;;;;;;4.95;2.22;;;;;;;;;;4987656;28;20043;-81
2022/06/19 05:30:42;;;;;;;7.70;2.50;;;;;;;;;;5001239;28;20042;-82
2022/06/19 05:33:29;;;;;;;5.60;2.60;;;;;;;;;;5003733;28;20481;-81
2022/06/19 05:36:15;;;;;;;3.72;2.40;;;;;;;;;;4993023;28;20042;-81
2022/06/19 05:39:00;;;;;;;6.00;2.42;;;;;;;;;;4991890;28;20039;-81
2022/06/19 05:41:46;;;;;;;9.63;2.70;;;;;;;;;;4984238;28;20553;-82
2022/06/19 05:44:31;;;;;;;6.30;2.85;;;;;;;;;;4978007;28;20047;-82
2022/06/19 05:47:17;;;;;;;6.60;3.05;;;;;;;;;;4993636;28;20046;-81
2022/06/19 05:50:02;;;;;;;6.60;2.80;;;;;;;;;;5003383;28;20482;-82
2022/06/19 05:52:48;;;;;;;4.03;2.40;;;;;;;;;;5001592;28;20050;-82
2022/06/19 05:55:33;;;;;;;6.10;2.30;;;;;;;;;;4990399;28;20043;-82
2022/06/19 05:58:19;;;;;;;6.50;2.90;;;;;;;;;;5002375;28;20050;-82
2022/06/19 06:01:05;;;;;;;7.93;2.78;;;;;;;;;;5002431;28;20397;-82
2022/06/19 06:03:50;;;;;;;5.38;2.88;;;;;;;;;;5003390;28;20498;-82
2022/06/19 06:06:39;;;;;;;5.75;2.83;;;;;;;;;;4998095;28;20046;-81
2022/06/19 06:09:24;;;;;;;4.43;2.60;;;;;;;;;;5004041;28;20058;-84
2022/06/19 06:12:10;;;;;;;9.32;2.90;;;;;;;;;;5004350;28;20473;-83
2022/06/19 06:14:55;;;;;;;7.88;2.70;;;;;;;;;;4998285;28;20042;-82
2022/06/19 06:17:41;;;;;;;9.13;2.92;;;;;;;;;;5003627;28;20051;-83
2022/06/19 06:20:28;;;;;;;4.70;2.50;;;;;;;;;;5004240;28;20050;-82
2022/06/19 06:23:13;;;;;;;3.58;2.60;;;;;;;;;;4997371;28;20042;-81
2022/06/19 06:26:11;;;;;;;7.28;3.03;;;;;;;;;;4996543;28;20046;-81
2022/06/19 06:28:58;;;;;;;3.97;2.58;;;;;;;;;;5003964;28;20505;-82
2022/06/19 06:31:44;;;;;;;4.45;2.88;;;;;;;;;;5003479;28;20046;-82
2022/06/19 06:34:30;;;;;;;4.38;3.00;;;;;;;;;;4997206;28;20046;-82
2022/06/19 06:37:15;;;;;;;7.10;2.75;;;;;;;;;;4997874;28;20045;-83
2022/06/19 06:40:01;;;;;;;7.15;2.80;;;;;;;;;;5004520;28;20068;-83
2022/06/19 06:42:48;;;;;;;10.70;2.85;;;;;;;;;;4997242;28;20042;-82
2022/06/19 06:45:34;;;;;;;4.30;2.67;;;;;;;;;;5002892;28;20050;-82
2022/06/19 06:48:20;;;;;;;10.45;2.88;;;;;;;;;;5002428;28;20046;-83
2022/06/19 06:51:10;;;;;;;3.97;2.40;;;;;;;;;;5002748;28;20042;-83
2022/06/19 06:53:57;;;;;;;3.17;2.60;;;;;;;;;;5002399;28;20054;-83
2022/06/19 06:56:42;;;;;;;4.80;2.75;;;;;;;;;;5003330;28;20038;-82
2022/06/19 06:59:28;;;;;;;6.10;2.63;;;;;;;;;;4981488;28;20046;-85
2022/06/19 07:02:13;;;;;;;5.35;2.30;;;;;;;;;;4995824;28;20038;-85
2022/06/19 07:04:59;;;;;;;3.72;2.30;;;;;;;;;;5003628;28;20054;-84
2022/06/19 07:07:44;;;;;;;4.35;2.60;;;;;;;;;;4988221;28;20050;-82
2022/06/19 07:10:29;;;;;;;5.07;2.50;;;;;;;;;;4996800;28;20046;-84
2022/06/19 07:13:15;;;;;;;6.45;2.30;;;;;;;;;;5009377;28;20042;-82
2022/06/19 07:16:00;;;;;;;5.03;2.83;;;;;;;;;;5007266;28;20050;-84
2022/06/19 07:18:46;;;;;;;4.40;2.90;;;;;;;;;;5023332;28;20042;-81
2022/06/19 07:21:31;;;;;;;7.28;2.80;;;;;;;;;;5021875;28;20481;-84
2022/06/19 07:24:16;;;;;;;5.60;2.40;;;;;;;;;;5012179;28;20613;-84
2022/06/19 07:27:02;;;;;;;4.07;2.58;;;;;;;;;;5012728;28;20392;-83
2022/06/19 07:29:47;;;;;;;3.38;2.30;;;;;;;;;;5004512;28;20054;-82
2022/06/19 07:32:33;;;;;;;6.40;2.80;;;;;;;;;;4997872;28;20042;-81
2022/06/19 07:35:18;;;;;;;5.35;2.67;;;;;;;;;;4997065;28;20398;-82
2022/06/19 07:38:04;;;;;;;6.75;2.40;;;;;;;;;;4973567;28;20054;-82
2022/06/19 07:40:50;;;;;;;7.00;2.60;;;;;;;;;;5000602;28;20054;-82
2022/06/19 07:43:35;;;;;;;5.43;2.65;;;;;;;;;;5005766;28;20054;-83
2022/06/19 07:46:21;;;;;;;4.60;2.83;;;;;;;;;;5001726;28;20042;-82
2022/06/19 07:52:12;;;;;;;6.82;2.30;;;;;;;;;;5002002;28;20047;-80
2022/06/19 07:54:57;;;;;;;4.07;2.50;;;;;;;;;;5001879;28;20046;-82
2022/06/19 07:57:43;;;;;;;6.70;2.63;;;;;;;;;;4999310;28;20050;-81
2022/06/19 08:00:32;;;;;;;3.45;2.42;;;;;;;;;;5002796;28;20398;-82
2022/06/19 08:03:17;;;;;;;3.85;2.70;;;;;;;;;;4996540;28;20050;-82
2022/06/19 08:06:03;;;;;;;4.85;2.65;;;;;;;;;;5002127;28;20046;-82
2022/06/19 08:08:48;;;;;;;2.90;2.15;;;;;;;;;;4997656;28;20035;-82
2022/06/19 08:11:34;;;;;;;6.90;2.67;;;;;;;;;;5000014;28;20050;-82
2022/06/19 08:14:19;;;;;;;4.53;2.58;;;;;;;;;;5002401;28;20046;-83
2022/06/19 08:17:05;;;;;;;4.20;2.50;;;;;;;;;;5002375;28;20050;-82
2022/06/19 08:19:50;;;;;;;4.13;2.33;;;;;;;;;;5001866;28;20034;-82
2022/06/19 08:22:37;;;;;;;5.70;2.40;;;;;;;;;;5000775;28;20393;-82
2022/06/19 08:25:24;;;;;;;4.30;2.55;;;;;;;;;;4995528;28;20055;-82
2022/06/19 08:28:09;;;;;;;4.47;2.38;;;;;;;;;;4994499;28;20050;-82
2022/06/19 08:30:54;;;;;;;5.18;2.40;;;;;;;;;;4979440;28;20042;-82
2022/06/19 08:33:40;;;;;;;6.93;2.40;;;;;;;;;;5000864;28;20054;-82
2022/06/19 08:36:26;;;;;;;3.47;2.30;;;;;;;;;;5000082;28;20054;-82
2022/06/19 08:39:15;;;;;;;8.73;2.67;;;;;;;;;;5000803;28;20042;-80
2022/06/19 08:42:38;;;;;;;5.00;2.38;;;;;;;;;;5000861;28;20042;-80
2022/06/19 08:45:25;;;;;;;6.68;2.47;;;;;;;;;;5000439;28;20046;-81
2022/06/19 08:48:56;;;;;;;4.15;2.42;;;;;;;;;;5001062;28;20051;-81
2022/06/19 08:52:18;;;;;;;4.85;2.13;;;;;;;;;;4988195;28;20054;-81
2022/06/19 08:55:22;;;;;;;5.15;2.33;;;;;;;;;;5000190;28;20043;-82
2022/06/19 08:58:30;;;;;;;2.92;2.15;;;;;;;;;;5003689;28;20045;-81
2022/06/19 09:01:24;;;;;;;2.88;1.83;;;;;;;;;;5024557;28;20045;-81
2022/06/19 09:07:49;;;;;;;4.10;1.92;;;;;;;;;;5024062;28;20360;-81
2022/06/19 09:11:06;;;;;;;5.25;1.63;;;;;;;;;;5024145;28;20050;-82
2022/06/19 09:13:57;;;;;;;6.03;1.63;;;;;;;;;;5024458;28;20046;-81
2022/06/19 09:16:46;;;;;;;5.55;2.28;;;;;;;;;;5014060;28;20493;-81
2022/06/19 09:20:02;;;;;;;2.90;1.63;;;;;;;;;;5004673;28;20050;-82
2022/06/19 09:23:24;;;;;;;4.75;1.50;;;;;;;;;;4984427;28;20050;-82
2022/06/19 09:26:14;;;;;;;3.05;1.50;;;;;;;;;;4987270;28;20389;-82
2022/06/19 09:29:41;;;;;;;3.95;1.75;;;;;;;;;;5023958;28;20050;-81
2022/06/19 09:32:52;;;;;;;9.45;1.52;;;;;;;;;;4962383;28;20079;-82
2022/06/19 09:35:42;;;;;;;3.63;1.60;;;;;;;;;;4982194;28;20062;-82
2022/06/19 09:38:36;;;;;;;4.50;1.70;;;;;;;;;;4998708;28;20047;-82
2022/06/19 09:41:29;;;;;;;19.65;7.57;;;;;;;;;;4994047;28;20043;-82
2022/06/19 09:44:26;;;;;;;2.55;1.70;;;;;;;;;;4989763;28;20061;-84
2022/06/19 09:47:18;;;;;;;2.95;1.60;;;;;;;;;;4993864;28;20054;-83
2022/06/19 09:50:17;;;;;;;6.88;2.13;;;;;;;;;;5001695;28;20054;-82
2022/06/19 09:53:32;;;;;;;6.32;3.13;;;;;;;;;;4988350;28;20470;-82
2022/06/19 09:56:42;;;;;;;4.00;1.80;;;;;;;;;;4994562;28;20050;-82
2022/06/19 09:59:39;;;;;;;2.25;1.60;;;;;;;;;;4995258;28;20050;-84
2022/06/19 10:02:43;;;;;;;4.40;3.25;;;;;;;;;;4991602;28;20042;-84
2022/06/19 10:05:43;;;;;;;3.65;1.80;;;;;;;;;;5000370;28;20413;-82
2022/06/19 10:08:38;;;;;;;3.05;1.70;;;;;;;;;;4993048;28;20042;-83
2022/06/19 10:11:30;;;;;;;6.75;1.90;;;;;;;;;;4996609;28;20482;-83
2022/06/19 10:14:41;;;;;;;5.22;2.53;;;;;;;;;;4996130;28;20043;-82
2022/06/19 10:18:19;;;;;;;2.88;1.80;;;;;;;;;;4994499;28;20390;-82
2022/06/19 10:22:13;;;;;;;2.25;1.55;;;;;;;;;;4966218;28;20401;-82
2022/06/19 10:25:08;;;;;;;3.72;1.77;;;;;;;;;;4988662;28;20054;-82
2022/06/19 10:28:17;;;;;;;5.25;1.80;;;;;;;;;;5004102;28;20397;-82
2022/06/19 10:31:28;;;;;;;4.88;1.65;;;;;;;;;;4974869;28;20423;-83
2022/06/19 10:34:42;;;;;;;2.47;1.80;;;;;;;;;;4996604;28;20481;-82
2022/06/19 10:38:18;;;;;;;14.95;10.02;;;;;;;;;;4981847;28;20489;-83
2022/06/19 10:42:00;;;;;;;7.72;3.65;;;;;;;;;;4977012;28;20058;-84
2022/06/19 10:44:28;;;;;;;6.65;3.65;;;;;;;;;;4998284;28;20476;-83
2022/06/19 10:47:32;;;;;;;7.85;2.00;;;;;;;;;;5006089;28;20054;-82
2022/06/19 10:50:37;;;;;;;2.60;1.73;;;;;;;;;;5002155;28;20050;-80
2022/06/19 10:53:35;;;;;;;5.50;1.90;;;;;;;;;;4990197;28;20047;-83
2022/06/19 10:56:34;;;;;;;4.55;2.10;;;;;;;;;;4974949;28;20394;-84
2022/06/19 10:59:21;;;;;;;5.82;3.38;;;;;;;;;;4978535;28;20058;-83
2022/06/19 11:05:50;;;;;;;10.88;4.35;;;;;;;;;;4981832;28;20046;-84
2022/06/19 11:17:27;;;;;;;8.90;2.28;;;;;;;;;;4928293;29;20052;-84
2022/06/19 11:33:25;;;;;;;26.15;4.28;;;;;;;;;;4879895;29;20045;-84
2022/06/19 11:36:39;;;;;;;2.55;1.92;;;;;;;;;;4878816;29;20128;-84
2022/06/19 11:40:40;;;;;;;3.10;2.03;;;;;;;;;;4853819;29;20038;-83
2022/06/19 11:56:45;;;;;;;3.10;2.03;;;;;;;;;;4801511;29;20443;-82
2022/06/19 12:00:33;;;;;;;3.83;2.28;;;;;;;;;;4801342;29;20043;-83
2022/06/19 12:16:45;;;;;;;5.07;2.30;;;;;;;;;;4919733;28;20046;-84
2022/06/19 12:24:43;;;;;;;2.97;2.13;;;;;;;;;;4978254;28;20063;-84
2022/06/19 12:32:40;;;;;;;3.53;1.90;;;;;;;;;;4996176;28;20050;-84
2022/06/19 13:28:33;;;;;;;2.10;1.83;;;;;;;;;;4922135;29;20052;-86
2022/06/19 13:41:08;;;;;;;4.47;1.70;;;;;;;;;;4926212;29;20069;-82
2022/06/19 13:44:36;;;;;;;1.92;1.50;;;;;;;;;;4956469;28;20051;-83
2022/06/19 13:47:55;;;;;;;1.67;1.58;;;;;;;;;;4949363;28;20047;-83
2022/06/19 14:08:15;;;;;;;3.70;1.77;;;;;;;;;;4943077;29;20484;-84
2022/06/19 14:15:41;;;;;;;3.20;1.40;;;;;;;;;;4957996;28;20047;-84
2022/06/19 14:23:23;;;;;;;3.97;1.90;;;;;;;;;;4996877;28;20050;-83
2022/06/19 14:31:13;;;;;;;3.17;2.55;;;;;;;;;;5003473;28;20038;-83
2022/06/19 14:43:21;;;;;;;;;;;;;;;;;;;;;
2022/06/19 14:51:45;;;;;;;3.72;1.60;;;;;;;;;;4983257;28;20039;-84
2022/06/19 15:17:11;;;;;;;3.50;2.00;;;;;;;;;;4954538;29;20047;-83
2022/06/19 15:20:27;;;;;;;3.58;1.80;;;;;;;;;;4950719;29;20051;-84
2022/06/19 15:23:31;;;;;;;3.85;1.70;;;;;;;;;;4961467;28;20055;-84
2022/06/19 15:26:54;;;;;;;4.45;2.03;;;;;;;;;;4974404;28;20046;-83
2022/06/19 15:48:13;;;;;;;2.85;1.60;;;;;;;;;;5001083;28;20050;-83
2022/06/19 15:56:33;;;;;;;4.57;2.00;;;;;;;;;;4992722;28;20038;-84
2022/06/19 16:00:52;;;;;;;;;;;;;;;;;;;;;
2022/06/19 17:24:48;;;;;;;5.65;3.40;;;;;;;;;;5131802;27;20375;-80
2022/06/19 17:27:55;;;;;;;9.73;4.00;;;;;;;;;;5118394;28;20044;-80
2022/06/19 17:30:45;;;;;;;7.65;3.60;;;;;;;;;;5111166;28;20076;-78
2022/06/19 17:33:33;;;;;;;6.78;2.45;;;;;;;;;;5111366;28;20044;-79
2022/06/19 17:36:38;;;;;;;8.40;5.65;;;;;;;;;;5118414;28;20048;-78
2022/06/19 17:39:33;;;;;;;7.53;5.00;;;;;;;;;;5118132;28;20393;-78
2022/06/19 17:42:23;;;;;;;;;;;;;;;;;;5110733;28;20397;-78
2022/06/19 17:45:19;;;;;;;7.72;3.85;;;;;;;;;;5117984;28;19923;-82
2022/06/19 17:48:05;;;;;;;12.35;9.35;;;;;;;;;;5111162;28;20044;-83
2022/06/19 17:50:50;;;;;;;6.80;3.45;;;;;;;;;;5111090;28;20035;-83
2022/06/19 17:53:42;;;;;;;7.30;4.95;;;;;;;;;;5110243;28;20051;-83
2022/06/19 17:56:31;;;;;;;13.60;5.75;;;;;;;;;;5110142;28;20048;-83
2022/06/19 17:59:26;;;;;;;7.07;4.15;;;;;;;;;;5118080;28;20040;-82
2022/06/19 18:02:11;;;;;;;11.23;3.13;;;;;;;;;;5117808;28;20048;-82
2022/06/19 18:05:06;;;;;;;5.75;3.28;;;;;;;;;;5110566;28;20044;-81
2022/06/19 18:07:54;;;;;;;4.60;2.85;;;;;;;;;;5111256;28;20070;-80
2022/06/19 18:10:50;;;;;;;4.82;3.00;;;;;;;;;;5117062;28;20052;-80
2022/06/19 18:13:49;;;;;;;5.68;3.10;;;;;;;;;;5117614;28;20488;-80
2022/06/19 18:19:39;;;;;;;5.35;3.72;;;;;;;;;;5110374;28;20389;-80
2022/06/19 18:22:25;;;;;;;7.45;3.40;;;;;;;;;;5109141;28;20051;-79
2022/06/19 18:25:10;;;;;;;4.55;3.13;;;;;;;;;;5110279;28;20052;-80
2022/06/19 18:27:56;;;;;;;13.05;6.38;;;;;;;;;;5117183;28;20384;-80
2022/06/19 18:30:42;;;;;;;28.40;16.10;;;;;;;;;;5110598;28;20052;-79
2022/06/19 18:33:29;;;;;;;45.17;28.08;;;;;;;;;;5116898;28;20055;-79
2022/06/19 18:36:18;;;;;;;18.77;11.10;;;;;;;;;;5096633;28;20052;-79
2022/06/19 18:39:31;;;;;;;9.10;4.47;;;;;;;;;;5103072;28;20043;-80
2022/06/19 18:42:19;;;;;;;6.10;4.30;;;;;;;;;;5093677;28;20040;-80
2022/06/19 18:45:06;;;;;;;11.10;5.55;;;;;;;;;;5103137;28;20040;-79
2022/06/19 18:47:52;;;;;;;14.40;5.43;;;;;;;;;;5103035;28;20040;-80
2022/06/19 18:50:38;;;;;;;18.17;6.28;;;;;;;;;;5103205;28;20047;-80
2022/06/19 18:53:30;;;;;;;16.42;7.07;;;;;;;;;;5096341;28;20048;-80
2022/06/19 18:56:15;;;;;;;18.00;5.47;;;;;;;;;;5096176;28;20048;-80
2022/06/19 18:59:00;;;;;;;11.65;5.38;;;;;;;;;;5096411;28;20039;-80
2022/06/19 19:01:47;;;;;;;10.35;4.30;;;;;;;;;;5103249;28;20036;-79
2022/06/19 19:04:32;;;;;;;5.55;3.70;;;;;;;;;;5096715;28;20052;-82
2022/06/19 19:07:24;;;;;;;8.20;3.13;;;;;;;;;;5095845;28;20059;-78
2022/06/19 19:10:16;;;;;;;9.98;3.38;;;;;;;;;;5095960;28;20040;-82
2022/06/19 19:13:32;;;;;;;7.88;3.38;;;;;;;;;;5096642;28;20131;-80
2022/06/19 19:16:25;;;;;;;6.68;4.03;;;;;;;;;;5088951;28;20067;-82
2022/06/19 19:19:23;;;;;;;5.25;2.83;;;;;;;;;;5102601;28;20388;-82
2022/06/19 19:22:29;;;;;;;5.28;2.50;;;;;;;;;;5095505;28;20041;-83
2022/06/19 19:25:13;;;;;;;7.75;2.70;;;;;;;;;;5095539;28;20052;-83
2022/06/19 19:27:59;;;;;;;5.30;2.88;;;;;;;;;;5095342;28;20039;-80
2022/06/19 19:30:45;;;;;;;5.68;3.08;;;;;;;;;;5095849;28;20473;-80
2022/06/19 19:33:30;;;;;;;6.60;2.88;;;;;;;;;;5095532;28;20481;-80
2022/06/19 19:36:17;;;;;;;3.17;2.60;;;;;;;;;;5095409;28;20044;-83
2022/06/19 19:39:10;;;;;;;4.95;2.60;;;;;;;;;;5095581;28;20040;-80
2022/06/19 19:41:55;;;;;;;4.50;2.63;;;;;;;;;;5100440;28;20044;-80
2022/06/19 19:44:41;;;;;;;4.10;2.60;;;;;;;;;;5106865;28;20431;-79
2022/06/19 19:47:27;;;;;;;3.80;2.40;;;;;;;;;;5099736;28;20036;-81
2022/06/19 19:50:17;;;;;;;2.90;2.33;;;;;;;;;;5109668;28;20036;-83
2022/06/19 19:53:03;;;;;;;4.20;2.40;;;;;;;;;;5101991;28;20048;-84
2022/06/19 19:55:49;;;;;;;3.53;2.35;;;;;;;;;;5093986;28;20040;-87
2022/06/19 19:58:34;;;;;;;4.10;2.30;;;;;;;;;;5102731;28;20044;-83
2022/06/19 20:01:20;;;;;;;4.82;2.47;;;;;;;;;;5088703;28;20036;-79
2022/06/19 20:04:05;;;;;;;3.20;2.17;;;;;;;;;;5094504;28;20048;-82
2022/06/19 20:12:58;;;;;;;8.80;2.80;;;;;;;;;;5096889;28;20048;-84
2022/06/19 20:15:45;;;;;;;5.53;2.53;;;;;;;;;;5095279;28;20044;-84
2022/06/19 20:18:32;;;;;;;4.10;2.20;;;;;;;;;;5101394;28;20488;-86
2022/06/19 20:21:37;;;;;;;5.28;2.33;;;;;;;;;;5081279;28;20119;-88
2022/06/19 20:24:36;;;;;;;5.68;2.72;;;;;;;;;;5091035;28;20048;-81
2022/06/19 20:27:27;;;;;;;9.30;3.40;;;;;;;;;;5094488;28;20040;-81
2022/06/19 20:30:17;;;;;;;8.18;2.97;;;;;;;;;;5095069;28;20048;-82
2022/06/19 20:33:03;;;;;;;7.45;3.60;;;;;;;;;;5094105;28;20040;-79
2022/06/19 20:35:49;;;;;;;7.30;3.65;;;;;;;;;;5094226;28;20051;-80
2022/06/19 20:38:41;;;;;;;6.63;3.53;;;;;;;;;;5100109;28;20488;-80
2022/06/19 20:47:48;;;;;;;11.23;3.80;;;;;;;;;;4860000;23;20055;-76
2022/06/19 20:50:39;;;;;;;12.27;3.30;;;;;;;;;;4992625;28;20042;-78
2022/06/19 20:53:28;;;;;;;10.30;3.42;;;;;;;;;;4994408;28;20046;-77
2022/06/19 20:56:14;;;;;;;5.85;3.30;;;;;;;;;;4994423;28;20046;-76
2022/06/19 20:59:00;;;;;;;8.70;3.65;;;;;;;;;;4994380;28;20038;-78
2022/06/19 21:01:45;;;;;;;8.57;3.20;;;;;;;;;;4993930;28;20042;-79
2022/06/19 21:04:34;;;;;;;7.88;3.63;;;;;;;;;;4994114;28;20046;-78
2022/06/19 21:07:29;;;;;;;7.07;3.20;;;;;;;;;;4994722;28;20042;-79
2022/06/19 21:10:25;;;;;;;11.43;3.45;;;;;;;;;;5000585;28;20046;-77
2022/06/19 21:13:23;;;;;;;5.63;3.17;;;;;;;;;;4993690;28;20042;-77
2022/06/19 21:16:16;;;;;;;4.28;2.75;;;;;;;;;;4993791;28;20042;-75
2022/06/19 21:19:02;;;;;;;4.20;2.45;;;;;;;;;;4994331;28;20038;-76
2022/06/19 21:21:47;;;;;;;8.05;2.22;;;;;;;;;;4994192;28;20046;-76
2022/06/19 21:24:34;;;;;;;4.88;2.35;;;;;;;;;;4993670;28;20058;-76
2022/06/19 21:27:21;;;;;;;4.82;2.38;;;;;;;;;;4994222;28;20484;-76
2022/06/19 21:30:11;;;;;;;3.92;2.05;;;;;;;;;;4993667;28;20396;-77
2022/06/19 21:32:58;;;;;;;3.65;2.40;;;;;;;;;;4994807;28;20066;-78
2022/06/19 21:35:44;;;;;;;3.08;2.20;;;;;;;;;;4994043;28;20047;-76
2022/06/19 21:38:31;;;;;;;3.20;2.30;;;;;;;;;;4994547;28;20038;-78
2022/06/19 21:41:23;;;;;;;3.38;2.50;;;;;;;;;;4994185;28;20038;-78
2022/06/19 21:44:13;;;;;;;2.80;2.20;;;;;;;;;;4993642;28;20109;-79
2022/06/19 21:47:00;;;;;;;2.95;2.42;;;;;;;;;;4994046;28;20058;-76
2022/06/19 21:49:46;;;;;;;3.72;2.30;;;;;;;;;;5000542;28;20034;-79
2022/06/19 21:52:32;;;;;;;2.20;2.00;;;;;;;;;;5000040;28;20042;-77
2022/06/19 21:55:23;;;;;;;3.30;2.33;;;;;;;;;;4992411;28;20050;-79
2022/06/19 21:58:12;;;;;;;2.80;2.10;;;;;;;;;;4993635;28;20039;-76
2022/06/19 22:00:56;;;;;;;2.38;2.17;;;;;;;;;;5000269;28;20058;-77
2022/06/19 22:03:41;;;;;;;4.20;2.17;;;;;;;;;;4993859;28;20047;-78
2022/06/19 22:06:42;;;;;;;5.15;2.47;;;;;;;;;;4993376;28;20046;-77
2022/06/19 22:12:37;;;;;;;4.15;2.58;;;;;;;;;;4997293;28;20042;-76
2022/06/19 22:15:27;;;;;;;5.47;2.10;;;;;;;;;;4997494;28;20054;-76
2022/06/19 22:18:15;;;;;;;3.75;2.30;;;;;;;;;;4997275;28;20046;-76
2022/06/19 22:21:01;;;;;;;4.53;2.38;;;;;;;;;;4997806;28;20053;-76
2022/06/19 22:23:47;;;;;;;4.65;2.97;;;;;;;;;;4997276;28;20046;-77
2022/06/19 22:26:46;;;;;;;3.85;2.55;;;;;;;;;;4995404;28;20046;-80
2022/06/19 22:29:32;;;;;;;8.35;2.58;;;;;;;;;;4990367;28;20050;-80
2022/06/19 22:32:20;;;;;;;5.72;2.58;;;;;;;;;;4996938;28;20050;-79
2022/06/19 22:35:10;;;;;;;2.90;2.22;;;;;;;;;;4996402;28;20050;-80